Time;durP1;ratioP1;P1;durP2;ratioP2;P2;SDS_P1;SDS_P2;PMS_P1;PMS_P2;Temp;Humidity;BMP_temperature;BMP_pressure;BME280_temperature;BME280_humidity;BME280_pressure;Samples;Min_cycle;Max_cycle;Signal;HPM_P1;HPM_P2
2023/07/17 00:01:13;;;;;;;2.13;1.70;;;22.90;59.10;;;;;;5114162;28;20206;-70
2023/07/17 00:03:38;;;;;;;1.85;1.75;;;22.90;59.20;;;;;;5115226;28;20169;-70
2023/07/17 00:06:04;;;;;;;1.85;1.55;;;22.90;59.10;;;;;;5114752;28;20203;-70
2023/07/17 00:08:30;;;;;;;2.65;1.83;;;22.90;59.10;;;;;;5113357;28;20230;-70
2023/07/17 00:10:57;;;;;;;2.72;1.45;;;22.90;59.10;;;;;;5114802;28;20533;-70
2023/07/17 00:13:22;;;;;;;1.52;1.42;;;22.90;59.80;;;;;;5114721;28;20169;-69
2023/07/17 00:15:48;;;;;;;2.05;1.65;;;22.90;59.20;;;;;;5114307;27;20184;-70
2023/07/17 00:18:14;;;;;;;2.38;1.85;;;22.90;59.20;;;;;;5114600;28;20492;-69
2023/07/17 00:20:40;;;;;;;2.00;1.67;;;22.90;59.80;;;;;;5115059;28;20670;-70
2023/07/17 00:23:05;;;;;;;1.80;1.50;;;22.90;59.20;;;;;;5113785;28;20173;-70
2023/07/17 00:25:31;;;;;;;2.47;1.75;;;22.90;59.20;;;;;;5114945;28;20205;-70
2023/07/17 00:27:56;;;;;;;1.67;1.58;;;22.80;59.20;;;;;;5113718;28;20165;-70
2023/07/17 00:30:22;;;;;;;2.30;1.98;;;22.90;59.20;;;;;;5115029;28;20176;-69
2023/07/17 00:32:47;;;;;;;2.40;1.52;;;22.80;59.20;;;;;;5115195;28;20169;-72
2023/07/17 00:35:13;;;;;;;1.65;1.55;;;22.80;59.20;;;;;;5113736;28;20208;-72
2023/07/17 00:37:38;;;;;;;2.95;2.03;;;22.90;59.30;;;;;;5114184;28;20180;-71
2023/07/17 00:40:07;;;;;;;2.22;1.38;;;22.80;59.20;;;;;;5113917;28;20236;-71
2023/07/17 00:42:32;;;;;;;2.13;1.50;;;22.80;59.20;;;;;;5113620;28;20632;-70
2023/07/17 00:44:58;;;;;;;1.42;1.30;;;22.80;59.30;;;;;;5114103;28;20205;-70
2023/07/17 00:47:23;;;;;;;1.65;1.40;;;22.80;59.30;;;;;;5113272;28;20173;-69
2023/07/17 00:49:49;;;;;;;1.85;1.63;;;22.80;59.30;;;;;;5078658;28;20165;-68
2023/07/17 00:52:15;;;;;;;1.80;1.38;;;22.80;59.30;;;;;;5114071;28;20547;-68
2023/07/17 00:54:41;;;;;;;1.63;1.50;;;22.80;59.40;;;;;;5096377;28;20207;-69
2023/07/17 00:57:06;;;;;;;1.50;1.40;;;22.80;59.30;;;;;;5078663;28;20168;-69
2023/07/17 00:59:32;;;;;;;1.63;1.52;;;22.80;59.30;;;;;;5078704;28;20177;-72
2023/07/17 01:01:58;;;;;;;2.40;1.50;;;22.80;59.40;;;;;;5095554;28;20176;-71
2023/07/17 01:04:23;;;;;;;1.45;1.35;;;22.80;59.40;;;;;;5113286;28;20169;-71
2023/07/17 01:06:51;;;;;;;2.35;1.73;;;22.80;59.40;;;;;;5113878;28;20300;-70
2023/07/17 01:09:21;;;;;;;1.38;1.27;;;22.80;59.40;;;;;;5113695;28;20218;-70
2023/07/17 01:11:47;;;;;;;2.22;1.52;;;22.80;59.50;;;;;;5113231;28;20196;-69
2023/07/17 01:14:19;;;;;;;2.13;1.67;;;22.80;59.50;;;;;;5113731;28;20693;-69
2023/07/17 01:16:46;;;;;;;2.58;1.92;;;22.80;59.50;;;;;;5113887;28;20177;-70
2023/07/17 01:19:12;;;;;;;2.33;1.85;;;22.80;59.50;;;;;;5112694;28;20690;-70
2023/07/17 01:21:41;;;;;;;3.08;1.67;;;22.80;59.50;;;;;;5113969;28;20204;-70
2023/07/17 01:24:07;;;;;;;1.90;1.63;;;22.70;59.50;;;;;;5078001;28;20169;-70
2023/07/17 01:26:32;;;;;;;2.53;1.83;;;22.80;59.50;;;;;;5113620;28;20262;-69
2023/07/17 01:28:58;;;;;;;3.05;2.03;;;22.80;59.50;;;;;;5113394;28;20173;-69
2023/07/17 01:31:23;;;;;;;2.22;1.75;;;22.80;59.50;;;;;;5112927;28;20195;-71
2023/07/17 01:33:49;;;;;;;3.08;1.90;;;22.80;60.30;;;;;;5113457;28;20173;-71
2023/07/17 01:36:15;;;;;;;2.03;1.80;;;22.70;59.50;;;;;;5113412;28;20972;-71
2023/07/17 01:38:40;;;;;;;2.10;1.80;;;22.70;59.50;;;;;;5112742;28;20581;-72
2023/07/17 01:41:06;;;;;;;2.25;1.70;;;22.70;59.50;;;;;;5113405;28;20260;-72
2023/07/17 01:43:31;;;;;;;2.17;1.90;;;22.70;59.60;;;;;;5113573;28;20173;-71
2023/07/17 01:45:57;;;;;;;2.58;1.75;;;22.70;59.60;;;;;;5112104;28;20671;-70
2023/07/17 01:48:22;;;;;;;1.70;1.60;;;22.70;59.60;;;;;;5113406;28;20165;-69
2023/07/17 01:50:48;;;;;;;2.10;1.70;;;22.70;59.60;;;;;;5113301;28;20219;-68
2023/07/17 01:53:20;;;;;;;2.85;1.90;;;22.70;59.60;;;;;;5094343;28;20173;-68
2023/07/17 01:55:46;;;;;;;2.38;1.70;;;22.70;59.60;;;;;;5113569;28;20226;-69
2023/07/17 01:58:11;;;;;;;2.05;1.90;;;22.70;59.60;;;;;;5112890;28;20512;-70
2023/07/17 02:00:37;;;;;;;2.72;1.67;;;22.70;59.60;;;;;;5112386;28;20635;-72
2023/07/17 02:03:03;;;;;;;1.98;1.75;;;22.70;59.60;;;;;;5112795;28;20251;-70
2023/07/17 02:05:28;;;;;;;2.08;1.88;;;22.70;59.60;;;;;;5113299;28;20217;-72
2023/07/17 02:07:56;;;;;;;2.08;1.92;;;22.70;59.60;;;;;;5112657;28;20526;-70
2023/07/17 02:10:22;;;;;;;2.33;1.88;;;22.70;59.60;;;;;;5113361;28;20176;-70
2023/07/17 02:12:48;;;;;;;2.00;1.80;;;22.70;59.60;;;;;;5112773;28;20175;-70
2023/07/17 02:15:13;;;;;;;1.85;1.65;;;22.70;59.60;;;;;;5112384;28;20177;-70
2023/07/17 02:17:39;;;;;;;3.30;1.88;;;22.60;59.60;;;;;;5113024;28;20169;-69
2023/07/17 02:20:10;;;;;;;1.90;1.67;;;22.60;59.60;;;;;;5112766;28;20242;-70
2023/07/17 02:22:36;;;;;;;2.30;2.00;;;22.60;59.60;;;;;;5112512;28;20177;-69
2023/07/17 02:25:01;;;;;;;1.83;1.67;;;22.70;59.60;;;;;;5112775;28;20283;-70
2023/07/17 02:27:27;;;;;;;2.63;1.60;;;22.70;59.60;;;;;;5112356;28;20600;-70
2023/07/17 02:29:53;;;;;;;2.20;2.00;;;22.60;59.60;;;;;;5112893;28;20173;-69
2023/07/17 02:32:19;;;;;;;2.05;1.85;;;22.60;59.60;;;;;;5113120;28;20230;-70
2023/07/17 02:34:45;;;;;;;1.70;1.45;;;22.60;59.60;;;;;;5112432;28;20577;-70
2023/07/17 02:37:10;;;;;;;1.85;1.75;;;22.60;59.60;;;;;;5112719;28;20256;-72
2023/07/17 02:39:36;;;;;;;1.67;1.58;;;22.60;59.60;;;;;;5112841;28;20308;-71
2023/07/17 02:42:04;;;;;;;1.88;1.70;;;22.60;59.60;;;;;;5111888;28;20252;-71
2023/07/17 02:44:30;;;;;;;2.17;1.90;;;22.60;59.60;;;;;;5112916;28;20169;-70
2023/07/17 02:46:55;;;;;;;1.73;1.63;;;22.60;59.60;;;;;;5112447;28;20216;-69
2023/07/17 02:49:21;;;;;;;2.15;1.83;;;22.60;59.60;;;;;;5112246;28;20652;-69
2023/07/17 02:51:46;;;;;;;3.17;2.42;;;22.60;59.60;;;;;;5112947;28;20200;-68
2023/07/17 02:54:12;;;;;;;2.25;1.98;;;22.60;60.40;;;;;;5112584;28;20537;-68
2023/07/17 02:56:38;;;;;;;2.75;2.10;;;22.60;59.60;;;;;;5111985;28;20173;-69
2023/07/17 02:59:05;;;;;;;2.60;1.80;;;22.60;59.70;;;;;;5112207;28;20184;-71
2023/07/17 03:01:31;;;;;;;2.15;1.95;;;22.60;60.40;;;;;;5112020;28;20189;-72
2023/07/17 03:03:56;;;;;;;1.75;1.63;;;22.60;59.70;;;;;;5111515;28;20506;-71
2023/07/17 03:06:22;;;;;;;1.85;1.75;;;22.60;59.70;;;;;;5112592;28;20262;-70
2023/07/17 03:08:48;;;;;;;2.38;1.73;;;22.60;59.70;;;;;;5112758;28;20227;-70
2023/07/17 03:11:13;;;;;;;3.00;1.80;;;22.50;59.60;;;;;;5112741;28;20189;-69
2023/07/17 03:13:39;;;;;;;3.00;1.85;;;22.60;59.70;;;;;;5116150;28;20177;-70
2023/07/17 03:16:04;;;;;;;2.80;1.77;;;22.50;59.60;;;;;;5115898;28;20697;-70
2023/07/17 03:18:30;;;;;;;1.98;1.77;;;22.50;60.40;;;;;;5115281;28;20180;-69
2023/07/17 03:20:55;;;;;;;3.10;1.80;;;22.50;59.60;;;;;;5115932;28;20170;-71
2023/07/17 03:23:21;;;;;;;2.75;1.77;;;22.50;59.60;;;;;;5116109;28;20169;-69
2023/07/17 03:25:46;;;;;;;1.83;1.73;;;22.50;59.60;;;;;;5115657;28;20296;-70
2023/07/17 03:28:12;;;;;;;2.35;2.05;;;22.50;59.60;;;;;;5116189;28;20627;-69
2023/07/17 03:30:39;;;;;;;3.50;1.80;;;22.50;59.60;;;;;;5115163;28;20165;-69
2023/07/17 03:33:05;;;;;;;1.95;1.75;;;22.50;59.70;;;;;;5115717;28;20220;-70
2023/07/17 03:35:30;;;;;;;2.22;1.92;;;22.50;59.70;;;;;;5115864;28;20180;-72
2023/07/17 03:37:56;;;;;;;4.18;1.80;;;22.40;59.60;;;;;;5114641;28;20181;-71
2023/07/17 03:40:21;;;;;;;3.78;2.00;;;22.50;59.60;;;;;;5115569;28;20221;-71
2023/07/17 03:42:47;;;;;;;2.92;1.65;;;22.50;59.60;;;;;;5115662;28;20214;-70
2023/07/17 03:45:12;;;;;;;1.98;1.80;;;22.50;59.70;;;;;;5114535;28;20204;-71
2023/07/17 03:47:38;;;;;;;2.10;1.90;;;22.50;59.60;;;;;;5115533;28;20265;-68
2023/07/17 03:50:04;;;;;;;2.17;1.95;;;22.50;59.60;;;;;;5115452;28;20184;-69
2023/07/17 03:52:30;;;;;;;1.92;1.80;;;22.50;59.70;;;;;;5114889;28;20204;-68
2023/07/17 03:54:55;;;;;;;2.03;1.83;;;22.50;59.70;;;;;;5115351;28;20184;-68
2023/07/17 03:57:21;;;;;;;2.25;1.88;;;22.50;59.70;;;;;;5115321;28;20260;-70
2023/07/17 03:59:54;;;;;;;1.90;1.70;;;22.50;59.70;;;;;;5114610;28;20636;-71
2023/07/17 04:02:20;;;;;;;2.55;2.28;;;22.50;59.70;;;;;;5115122;28;20223;-71
2023/07/17 04:04:45;;;;;;;2.60;1.95;;;22.40;59.60;;;;;;5115389;28;20180;-71
2023/07/17 04:07:11;;;;;;;2.65;2.30;;;22.50;59.60;;;;;;5114246;28;20264;-70
2023/07/17 04:09:37;;;;;;;2.08;1.88;;;22.50;59.60;;;;;;5115160;28;20230;-71
2023/07/17 04:12:03;;;;;;;2.60;1.98;;;22.50;59.60;;;;;;5114782;28;20169;-69
2023/07/17 04:14:30;;;;;;;2.78;2.22;;;22.50;59.60;;;;;;5114265;28;20654;-70
2023/07/17 04:16:55;;;;;;;1.73;1.60;;;22.50;59.60;;;;;;5114889;28;20196;-70
2023/07/17 04:19:21;;;;;;;2.08;1.88;;;22.50;59.60;;;;;;5114968;28;20169;-69
2023/07/17 04:21:46;;;;;;;2.70;1.88;;;22.50;59.60;;;;;;5113835;28;20173;-70
2023/07/17 04:24:12;;;;;;;2.70;2.15;;;22.50;59.60;;;;;;5114646;28;20242;-69
2023/07/17 04:26:37;;;;;;;4.85;1.90;;;22.50;59.60;;;;;;5114669;28;20556;-69
2023/07/17 04:29:03;;;;;;;2.35;1.65;;;22.50;59.60;;;;;;5113675;28;20211;-69
2023/07/17 04:31:29;;;;;;;2.33;2.00;;;22.50;59.60;;;;;;5114827;28;20267;-71
2023/07/17 04:33:54;;;;;;;2.80;1.73;;;22.50;59.60;;;;;;5114563;28;20191;-70
2023/07/17 04:36:20;;;;;;;2.70;2.03;;;22.50;59.50;;;;;;5114229;28;20172;-71
2023/07/17 04:38:45;;;;;;;2.60;2.40;;;22.50;59.50;;;;;;5114413;28;20228;-72
2023/07/17 04:41:11;;;;;;;2.67;1.85;;;22.50;59.50;;;;;;5113668;28;20220;-72
2023/07/17 04:43:36;;;;;;;2.25;1.95;;;22.50;59.50;;;;;;5114836;28;20748;-70
2023/07/17 04:46:03;;;;;;;1.73;1.63;;;22.50;59.50;;;;;;5113902;28;20732;-69
2023/07/17 04:48:28;;;;;;;2.17;1.77;;;22.50;59.50;;;;;;5113861;28;20272;-68
2023/07/17 04:50:54;;;;;;;2.30;1.70;;;22.50;59.50;;;;;;5114651;28;20597;-69
2023/07/17 04:53:19;;;;;;;1.85;1.75;;;22.50;59.50;;;;;;5114209;28;20180;-69
2023/07/17 04:55:45;;;;;;;2.83;1.90;;;22.50;59.50;;;;;;5113643;28;20631;-69
2023/07/17 04:58:10;;;;;;;2.97;2.10;;;22.50;59.50;;;;;;5113846;28;20280;-70
2023/07/17 05:00:36;;;;;;;2.30;1.90;;;22.50;59.40;;;;;;5114275;28;20623;-72
2023/07/17 05:03:01;;;;;;;3.08;1.98;;;22.50;59.50;;;;;;5113130;28;20213;-71
2023/07/17 05:05:28;;;;;;;2.65;2.03;;;22.50;59.40;;;;;;5114082;28;20197;-71
2023/07/17 05:07:54;;;;;;;3.42;1.95;;;22.50;59.40;;;;;;5114024;28;20181;-69
2023/07/17 05:10:19;;;;;;;2.65;1.85;;;22.50;59.40;;;;;;5113055;28;20642;-70
2023/07/17 05:12:45;;;;;;;2.33;2.05;;;22.50;59.40;;;;;;5113888;28;20299;-69
2023/07/17 05:15:10;;;;;;;2.95;1.77;;;22.50;59.40;;;;;;5113504;28;20546;-70
2023/07/17 05:17:36;;;;;;;2.95;2.10;;;22.50;59.40;;;;;;5113371;28;20183;-70
2023/07/17 05:20:04;;;;;;;2.35;1.80;;;22.50;59.30;;;;;;5113167;28;20184;-70
2023/07/17 05:22:30;;;;;;;3.22;1.83;;;22.50;59.40;;;;;;5113902;28;20177;-70
2023/07/17 05:24:56;;;;;;;2.63;1.70;;;22.50;59.30;;;;;;5112612;28;20209;-70
2023/07/17 05:27:22;;;;;;;1.98;1.75;;;22.50;59.30;;;;;;5113639;28;20177;-69
2023/07/17 05:29:47;;;;;;;1.88;1.70;;;22.50;59.30;;;;;;5113909;28;20180;-70
2023/07/17 05:32:13;;;;;;;2.88;2.10;;;22.50;59.30;;;;;;5113038;28;20252;-71
2023/07/17 05:34:41;;;;;;;3.08;1.90;;;22.50;59.30;;;;;;5113215;28;20218;-73
2023/07/17 05:37:07;;;;;;;2.38;1.95;;;22.50;59.30;;;;;;5113317;28;20242;-72
2023/07/17 05:39:32;;;;;;;3.08;1.90;;;22.60;59.40;;;;;;5112458;28;20699;-73
2023/07/17 05:41:58;;;;;;;2.47;1.70;;;22.50;59.30;;;;;;5113385;28;20173;-71
2023/07/17 05:44:24;;;;;;;2.85;2.30;;;22.50;59.30;;;;;;5112988;28;20177;-70
2023/07/17 05:46:49;;;;;;;3.67;1.92;;;22.50;59.30;;;;;;5113305;28;20580;-69
2023/07/17 05:49:15;;;;;;;2.70;2.15;;;22.50;59.30;;;;;;5113128;28;20338;-67
2023/07/17 05:51:41;;;;;;;2.83;1.70;;;22.50;59.30;;;;;;5112808;28;20172;-68
2023/07/17 05:54:06;;;;;;;5.00;2.20;;;22.50;59.30;;;;;;5112829;28;20209;-68
2023/07/17 05:56:32;;;;;;;2.65;2.10;;;22.50;59.30;;;;;;5113309;28;20173;-68
2023/07/17 05:58:57;;;;;;;3.50;2.22;;;22.50;59.30;;;;;;5112336;28;20173;-71
2023/07/17 06:01:23;;;;;;;2.88;1.90;;;22.60;59.40;;;;;;5113378;28;20176;-70
2023/07/17 06:03:48;;;;;;;4.07;2.63;;;22.50;59.30;;;;;;5112424;28;20181;-71
2023/07/17 06:06:14;;;;;;;2.83;2.10;;;22.60;59.40;;;;;;5112150;28;20295;-70
2023/07/17 06:08:41;;;;;;;3.67;2.15;;;22.60;59.30;;;;;;5113187;28;20252;-70
2023/07/17 06:11:06;;;;;;;2.40;2.20;;;22.60;60.00;;;;;;5112801;28;20594;-69
2023/07/17 06:13:32;;;;;;;4.30;2.45;;;22.60;59.30;;;;;;5112518;28;20200;-69
2023/07/17 06:15:58;;;;;;;2.85;2.25;;;22.60;59.30;;;;;;5112860;28;20173;-70
2023/07/17 06:18:23;;;;;;;2.30;2.10;;;22.60;59.20;;;;;;5113286;28;20256;-70
2023/07/17 06:20:49;;;;;;;3.00;2.20;;;22.60;59.20;;;;;;5112362;28;20204;-69
2023/07/17 06:23:14;;;;;;;4.97;2.50;;;22.50;59.20;;;;;;5112874;28;20176;-69
2023/07/17 06:25:41;;;;;;;4.15;2.38;;;22.60;59.20;;;;;;5112811;28;20193;-69
2023/07/17 06:28:08;;;;;;;2.90;2.38;;;22.60;59.20;;;;;;5112027;28;20181;-69
2023/07/17 06:30:33;;;;;;;3.22;2.80;;;22.60;59.20;;;;;;5112984;28;20173;-70
2023/07/17 06:32:59;;;;;;;3.35;2.58;;;22.60;59.20;;;;;;5112731;28;20658;-71
2023/07/17 06:35:24;;;;;;;4.70;2.55;;;22.60;59.70;;;;;;5112333;28;20161;-72
2023/07/17 06:37:50;;;;;;;3.92;2.60;;;22.60;59.10;;;;;;5112916;28;20192;-71
2023/07/17 06:40:15;;;;;;;3.22;2.75;;;22.60;59.10;;;;;;5112209;28;20260;-71
2023/07/17 06:42:41;;;;;;;3.97;3.08;;;22.60;59.10;;;;;;5111963;28;20181;-69
2023/07/17 06:45:07;;;;;;;3.03;2.58;;;22.60;59.10;;;;;;5113696;28;20659;-68
2023/07/17 06:47:33;;;;;;;2.95;2.60;;;22.70;59.00;;;;;;5116627;28;20180;-68
2023/07/17 06:49:58;;;;;;;3.75;2.50;;;22.70;59.10;;;;;;5116254;28;20169;-67
2023/07/17 06:52:24;;;;;;;3.72;2.63;;;22.60;59.10;;;;;;5116522;28;20184;-67
2023/07/17 06:54:50;;;;;;;2.75;2.10;;;22.70;59.10;;;;;;5115648;28;20200;-69
2023/07/17 06:57:15;;;;;;;4.07;2.78;;;22.70;59.00;;;;;;5116421;28;20222;-70
2023/07/17 06:59:41;;;;;;;3.70;2.45;;;22.70;59.60;;;;;;5116273;28;20173;-72
2023/07/17 07:02:06;;;;;;;4.47;2.72;;;22.70;58.90;;;;;;5115642;28;20181;-68
2023/07/17 07:04:32;;;;;;;3.65;2.55;;;22.70;58.90;;;;;;5116477;28;20533;-72
2023/07/17 07:06:57;;;;;;;4.63;3.03;;;22.70;58.80;;;;;;5116071;28;20260;-70
2023/07/17 07:09:23;;;;;;;3.85;3.10;;;22.70;58.80;;;;;;5115778;28;20238;-70
2023/07/17 07:11:48;;;;;;;4.53;2.97;;;22.80;58.80;;;;;;5116373;28;20255;-69
2023/07/17 07:14:14;;;;;;;4.03;2.78;;;22.80;58.80;;;;;;5115810;28;20570;-69
2023/07/17 07:16:40;;;;;;;5.32;3.42;;;22.80;58.80;;;;;;5115262;28;20627;-70
2023/07/17 07:19:05;;;;;;;5.00;2.90;;;22.80;58.80;;;;;;5115759;28;20263;-71
2023/07/17 07:21:34;;;;;;;3.90;2.80;;;22.80;58.90;;;;;;5116172;28;20172;-70
2023/07/17 07:23:59;;;;;;;4.45;2.72;;;22.80;58.90;;;;;;5114933;28;20200;-70
2023/07/17 07:26:25;;;;;;;4.53;3.28;;;22.80;59.00;;;;;;5115909;28;20717;-69
2023/07/17 07:28:50;;;;;;;6.18;3.25;;;22.70;58.90;;;;;;5115927;28;20173;-71
2023/07/17 07:31:16;;;;;;;6.00;3.05;;;22.80;59.00;;;;;;5115138;28;20205;-71
2023/07/17 07:33:42;;;;;;;4.47;2.80;;;22.70;59.10;;;;;;5116029;28;20655;-71
2023/07/17 07:36:07;;;;;;;5.47;3.17;;;22.70;59.10;;;;;;5115339;28;20628;-72
2023/07/17 07:38:33;;;;;;;6.25;3.20;;;22.70;59.20;;;;;;5114787;28;20303;-72
2023/07/17 07:40:58;;;;;;;5.05;3.65;;;22.70;59.10;;;;;;5115443;28;20173;-72
2023/07/17 07:43:24;;;;;;;6.90;3.47;;;22.70;59.00;;;;;;5115683;28;20183;-71
2023/07/17 07:45:49;;;;;;;6.03;3.45;;;22.70;59.00;;;;;;5114840;28;20205;-69
2023/07/17 07:48:15;;;;;;;6.93;3.88;;;22.70;59.00;;;;;;5115081;28;20276;-69
2023/07/17 07:50:40;;;;;;;6.90;3.47;;;22.70;59.00;;;;;;5115433;28;20209;-68
2023/07/17 07:53:06;;;;;;;3.53;3.22;;;22.80;59.00;;;;;;5114367;28;20181;-68
2023/07/17 07:55:31;;;;;;;5.68;3.33;;;22.80;59.00;;;;;;5115396;28;20169;-69
2023/07/17 07:57:57;;;;;;;5.45;3.58;;;22.80;59.00;;;;;;5113587;28;20188;-70
2023/07/17 08:00:23;;;;;;;3.60;3.15;;;22.80;58.90;;;;;;5115402;28;20180;-71
2023/07/17 08:02:49;;;;;;;8.80;3.40;;;22.80;58.90;;;;;;5115198;28;20671;-71
2023/07/17 08:05:14;;;;;;;4.80;3.67;;;22.80;58.80;;;;;;5114218;28;20215;-71
2023/07/17 08:07:40;;;;;;;4.53;3.45;;;22.80;58.80;;;;;;5115200;28;20169;-71
2023/07/17 08:10:06;;;;;;;5.65;3.53;;;22.80;58.90;;;;;;5115027;28;20180;-70
2023/07/17 08:12:32;;;;;;;4.50;3.90;;;22.80;59.00;;;;;;5114410;28;20173;-69
2023/07/17 08:14:58;;;;;;;3.70;3.15;;;22.80;59.00;;;;;;5114819;28;20195;-70
2023/07/17 08:17:23;;;;;;;4.88;3.97;;;22.80;58.90;;;;;;5114989;28;20623;-71
2023/07/17 08:19:49;;;;;;;3.50;3.10;;;22.90;58.80;;;;;;5114256;28;20176;-70
2023/07/17 08:22:14;;;;;;;4.47;3.30;;;22.90;59.50;;;;;;5114725;28;20165;-69
2023/07/17 08:24:40;;;;;;;5.07;3.88;;;22.80;58.80;;;;;;5114724;28;20619;-70
2023/07/17 08:27:06;;;;;;;4.93;3.45;;;22.90;58.90;;;;;;5113919;28;20208;-69
2023/07/17 08:29:31;;;;;;;3.95;3.25;;;22.90;58.80;;;;;;5114885;28;20601;-71
2023/07/17 08:31:57;;;;;;;5.28;3.30;;;22.90;58.70;;;;;;5114520;28;20177;-71
2023/07/17 08:34:23;;;;;;;6.80;3.50;;;22.90;58.70;;;;;;5114000;28;20170;-71
2023/07/17 08:36:49;;;;;;;4.50;3.40;;;23.00;58.70;;;;;;5114393;28;20165;-71
2023/07/17 08:39:14;;;;;;;5.32;3.90;;;23.00;58.70;;;;;;5113855;28;20225;-72
2023/07/17 08:41:41;;;;;;;5.15;3.38;;;23.00;58.70;;;;;;5113804;28;20173;-71
2023/07/17 08:44:07;;;;;;;5.53;3.47;;;23.00;58.70;;;;;;5096488;28;20177;-71
2023/07/17 08:46:33;;;;;;;5.32;3.55;;;23.00;59.20;;;;;;5079184;28;20212;-69
2023/07/17 08:48:58;;;;;;;4.68;3.90;;;23.00;58.70;;;;;;5095205;28;20527;-68
2023/07/17 08:51:24;;;;;;;3.85;3.47;;;23.00;58.70;;;;;;5079311;28;20172;-68
2023/07/17 08:53:49;;;;;;;4.28;3.13;;;23.00;59.40;;;;;;5079536;28;20643;-68
2023/07/17 08:56:15;;;;;;;4.50;2.85;;;22.90;58.80;;;;;;5095140;28;20265;-69
2023/07/17 08:58:40;;;;;;;5.90;3.70;;;23.00;58.90;;;;;;5079313;28;20161;-70
2023/07/17 09:01:07;;;;;;;3.88;3.35;;;23.00;58.80;;;;;;5113535;28;20184;-71
2023/07/17 09:03:34;;;;;;;5.40;3.90;;;23.00;58.60;;;;;;5113418;28;20219;-71
2023/07/17 09:06:02;;;;;;;4.55;3.40;;;23.00;58.70;;;;;;5113706;28;20577;-71
2023/07/17 09:08:27;;;;;;;3.97;2.88;;;23.00;58.70;;;;;;5112665;28;20567;-69
2023/07/17 09:11:03;;;;;;;4.05;3.13;;;23.10;58.60;;;;;;5114217;28;20208;-70
2023/07/17 09:13:36;;;;;;;4.68;3.25;;;23.10;58.50;;;;;;5113752;28;20619;-70
2023/07/17 09:16:18;;;;;;;6.47;3.72;;;23.10;58.50;;;;;;5112959;28;20204;-71
2023/07/17 09:18:45;;;;;;;4.80;3.28;;;23.10;58.50;;;;;;5113599;28;20226;-69
2023/07/17 09:21:12;;;;;;;3.42;3.10;;;23.10;58.50;;;;;;5113510;28;20639;-71
2023/07/17 09:23:39;;;;;;;4.80;3.20;;;23.10;58.40;;;;;;5113161;28;20219;-70
2023/07/17 09:26:05;;;;;;;5.30;3.42;;;23.20;58.40;;;;;;5113390;28;20299;-70
2023/07/17 09:28:30;;;;;;;3.70;2.80;;;23.20;58.30;;;;;;5113751;28;20205;-70
2023/07/17 09:31:02;;;;;;;4.72;3.42;;;23.20;58.40;;;;;;5094319;28;20207;-70
2023/07/17 09:33:27;;;;;;;4.20;3.45;;;23.20;58.40;;;;;;5113564;28;20632;-71
2023/07/17 09:35:56;;;;;;;4.07;3.55;;;23.10;58.40;;;;;;5113815;28;20188;-71
2023/07/17 09:38:24;;;;;;;4.88;3.33;;;23.10;58.60;;;;;;5112726;28;20263;-72
2023/07/17 09:40:49;;;;;;;4.22;3.42;;;23.10;58.60;;;;;;5113658;28;20189;-72
2023/07/17 09:43:15;;;;;;;4.45;3.08;;;23.10;58.60;;;;;;5113378;28;20214;-71
2023/07/17 09:45:41;;;;;;;4.53;3.50;;;23.20;58.40;;;;;;5112620;28;20213;-70
2023/07/17 09:48:06;;;;;;;3.72;3.08;;;23.20;58.40;;;;;;5078450;28;20173;-68
2023/07/17 09:50:32;;;;;;;5.07;3.53;;;23.30;58.30;;;;;;5077866;28;20178;-68
2023/07/17 09:52:57;;;;;;;4.07;3.55;;;23.30;58.30;;;;;;5095031;28;20200;-68
2023/07/17 09:55:27;;;;;;;3.90;2.78;;;23.40;58.30;;;;;;5078055;28;20165;-69
2023/07/17 09:57:52;;;;;;;3.78;3.15;;;23.30;58.30;;;;;;5112530;28;20181;-71
2023/07/17 10:00:19;;;;;;;5.20;3.35;;;23.30;58.40;;;;;;5094964;28;20175;-71
2023/07/17 10:03:17;;;;;;;4.00;3.40;;;23.20;58.40;;;;;;5095316;28;20185;-71
2023/07/17 10:05:43;;;;;;;4.20;3.22;;;23.20;58.50;;;;;;5078336;28;20224;-70
2023/07/17 10:08:12;;;;;;;4.35;3.25;;;23.20;58.40;;;;;;5112752;28;20527;-69
2023/07/17 10:10:38;;;;;;;4.55;3.47;;;23.20;58.50;;;;;;5113335;28;20569;-71
2023/07/17 10:13:05;;;;;;;4.28;3.50;;;23.30;58.50;;;;;;5112372;28;20200;-71
2023/07/17 10:15:30;;;;;;;4.30;3.03;;;23.20;58.50;;;;;;5113271;28;20173;-72
2023/07/17 10:17:59;;;;;;;4.18;3.10;;;23.20;58.50;;;;;;5078006;28;20177;-71
2023/07/17 10:20:25;;;;;;;4.63;3.15;;;23.20;58.50;;;;;;5113910;28;20230;-71
2023/07/17 10:22:51;;;;;;;4.05;2.97;;;23.10;58.60;;;;;;5117558;28;20173;-71
2023/07/17 10:25:19;;;;;;;4.10;3.47;;;23.10;58.50;;;;;;5116666;28;20726;-70
2023/07/17 10:27:53;;;;;;;3.33;2.90;;;23.10;58.60;;;;;;5116749;28;20179;-71
2023/07/17 10:30:34;;;;;;;5.35;3.28;;;23.10;58.60;;;;;;5082537;28;20642;-72
2023/07/17 10:33:04;;;;;;;3.92;3.03;;;23.10;58.70;;;;;;5116056;28;20177;-72
2023/07/17 10:35:32;;;;;;;6.93;3.20;;;23.10;58.80;;;;;;5116695;28;20173;-75
2023/07/17 10:38:11;;;;;;;6.00;3.60;;;23.10;58.80;;;;;;5098539;28;20181;-72
2023/07/17 10:40:36;;;;;;;5.90;3.50;;;23.20;58.80;;;;;;5116344;28;20197;-72
2023/07/17 10:43:16;;;;;;;4.53;3.38;;;23.30;58.50;;;;;;5116652;28;20496;-72
2023/07/17 10:45:42;;;;;;;6.22;3.22;;;23.40;58.50;;;;;;5116676;28;20239;-70
2023/07/17 10:48:07;;;;;;;7.07;3.25;;;23.40;58.30;;;;;;5115709;28;20205;-69
2023/07/17 10:50:33;;;;;;;7.32;3.15;;;23.40;58.40;;;;;;5116843;28;20173;-69
2023/07/17 10:53:03;;;;;;;4.82;2.90;;;23.30;58.30;;;;;;5116518;28;20180;-69
2023/07/17 10:55:29;;;;;;;5.82;3.25;;;23.30;58.40;;;;;;5116150;28;20199;-70
2023/07/17 10:57:56;;;;;;;7.20;3.90;;;23.20;58.50;;;;;;5098381;28;20533;-71
2023/07/17 11:00:22;;;;;;;8.85;4.38;;;23.10;58.50;;;;;;5116742;28;20181;-72
2023/07/17 11:02:47;;;;;;;8.10;4.43;;;23.10;58.90;;;;;;5115546;28;20169;-72
2023/07/17 11:05:13;;;;;;;4.78;3.53;;;23.10;59.00;;;;;;5115901;28;20518;-73
2023/07/17 11:07:38;;;;;;;8.20;3.92;;;23.10;59.00;;;;;;5116313;28;20299;-74
2023/07/17 11:10:12;;;;;;;6.70;3.50;;;23.10;59.00;;;;;;5115295;28;20176;-72
2023/07/17 11:12:38;;;;;;;8.13;3.88;;;23.10;59.00;;;;;;5099140;28;20195;-70
2023/07/17 11:15:11;;;;;;;4.22;2.78;;;23.20;59.40;;;;;;5115286;28;20250;-71
2023/07/17 11:17:37;;;;;;;6.72;3.40;;;23.20;58.80;;;;;;5116469;28;20504;-70
2023/07/17 11:20:03;;;;;;;6.13;3.30;;;23.30;58.60;;;;;;5116197;28;20176;-69
2023/07/17 11:22:31;;;;;;;6.57;3.40;;;23.40;58.60;;;;;;5115474;28;20179;-72
2023/07/17 11:24:57;;;;;;;7.45;3.75;;;23.40;58.60;;;;;;5133727;27;20267;-68
2023/07/17 11:27:23;;;;;;;7.25;4.68;;;23.50;58.60;;;;;;5093051;27;20752;-69
2023/07/17 11:29:50;;;;;;;9.60;4.32;;;23.50;58.50;;;;;;5107538;28;20252;-70
2023/07/17 11:32:20;;;;;;;6.72;4.30;;;23.50;58.40;;;;;;5090467;27;20180;-72
2023/07/17 11:34:53;;;;;;;7.18;4.55;;;23.50;58.40;;;;;;5108550;27;20169;-73
2023/07/17 11:37:37;;;;;;;9.68;5.25;;;23.50;58.40;;;;;;5123223;27;20176;-71
2023/07/17 11:40:09;;;;;;;8.02;4.78;;;23.50;58.50;;;;;;5125311;27;20262;-72
2023/07/17 11:42:55;;;;;;;8.68;5.35;;;23.50;58.60;;;;;;5124878;27;20222;-72
2023/07/17 11:45:24;;;;;;;8.98;4.82;;;23.50;58.60;;;;;;5124866;27;20216;-71
2023/07/17 11:47:51;;;;;;;6.93;4.38;;;23.50;58.60;;;;;;5124434;27;20197;-71
2023/07/17 11:50:24;;;;;;;12.40;5.47;;;23.50;58.60;;;;;;5104103;28;20174;-70
2023/07/17 11:53:03;;;;;;;11.00;5.50;;;23.40;58.60;;;;;;5115790;28;20180;-70
2023/07/17 11:55:36;;;;;;;9.88;5.45;;;23.40;58.60;;;;;;5115622;28;20181;-72
2023/07/17 11:58:11;;;;;;;6.50;4.80;;;23.40;58.70;;;;;;5130718;27;20658;-71
2023/07/17 12:00:43;;;;;;;7.13;5.32;;;23.40;58.60;;;;;;5135808;27;20175;-73
2023/07/17 12:03:08;;;;;;;6.35;4.97;;;23.50;58.60;;;;;;5135545;27;20635;-72
2023/07/17 12:05:35;;;;;;;8.55;4.53;;;23.50;58.50;;;;;;5135002;27;20235;-72
2023/07/17 12:08:00;;;;;;;8.38;5.28;;;23.40;58.60;;;;;;5135716;27;20191;-71
2023/07/17 12:10:26;;;;;;;9.80;5.70;;;23.40;58.70;;;;;;5135912;27;20168;-71
2023/07/17 12:12:51;;;;;;;6.68;4.82;;;23.30;58.80;;;;;;5116784;27;20165;-71
2023/07/17 12:15:17;;;;;;;6.13;4.25;;;23.20;58.90;;;;;;5135354;27;20205;-71
2023/07/17 12:17:42;;;;;;;7.13;4.65;;;23.20;59.00;;;;;;5135547;27;20230;-71
2023/07/17 12:20:08;;;;;;;7.50;4.47;;;23.30;58.90;;;;;;5134713;27;20634;-72
2023/07/17 12:22:34;;;;;;;5.80;4.50;;;23.20;58.90;;;;;;5135441;27;20172;-71
2023/07/17 12:25:00;;;;;;;7.53;4.47;;;23.20;58.90;;;;;;5135197;27;20180;-72
2023/07/17 12:27:25;;;;;;;6.28;4.22;;;23.20;59.00;;;;;;5134594;27;20175;-71
2023/07/17 12:29:51;;;;;;;7.43;4.13;;;23.20;59.00;;;;;;5135099;27;20167;-71
2023/07/17 12:32:16;;;;;;;6.78;4.50;;;23.30;58.90;;;;;;5134010;27;20204;-72
2023/07/17 12:34:42;;;;;;;7.78;4.53;;;23.40;58.80;;;;;;5135526;27;20176;-74
2023/07/17 12:37:07;;;;;;;6.78;4.75;;;23.40;59.20;;;;;;5134637;27;20173;-73
2023/07/17 12:39:33;;;;;;;6.63;3.92;;;23.40;58.60;;;;;;5115878;27;20216;-73
2023/07/17 12:41:58;;;;;;;6.35;4.25;;;23.40;58.80;;;;;;5135025;27;20173;-72
2023/07/17 12:44:24;;;;;;;6.20;3.97;;;23.30;58.80;;;;;;5099770;27;20168;-72